地図

経路データ

SID SEASON NUMBER BASIN SUBBASIN NAME ISO_TIME NATURE LAT LON WMO_WIND WMO_PRES WMO_AGENCY TRACK_TYPE DIST2LAND LANDFALL IFLAG USA_AGENCY USA_ATCF_ID USA_LAT USA_LON USA_RECORD USA_STATUS USA_WIND USA_PRES USA_SSHS USA_R34_NE USA_R34_SE USA_R34_SW USA_R34_NW USA_R50_NE USA_R50_SE USA_R50_SW USA_R50_NW USA_R64_NE USA_R64_SE USA_R64_SW USA_R64_NW USA_POCI USA_ROCI USA_RMW USA_EYE TOKYO_LAT TOKYO_LON TOKYO_GRADE TOKYO_WIND TOKYO_PRES TOKYO_R50_DIR TOKYO_R50_LONG TOKYO_R50_SHORT TOKYO_R30_DIR TOKYO_R30_LONG TOKYO_R30_SHORT TOKYO_LAND CMA_LAT CMA_LON CMA_CAT CMA_WIND CMA_PRES HKO_LAT HKO_LON HKO_CAT HKO_WIND HKO_PRES NEWDELHI_LAT NEWDELHI_LON NEWDELHI_GRADE NEWDELHI_WIND NEWDELHI_PRES NEWDELHI_CI NEWDELHI_DP NEWDELHI_POCI REUNION_LAT REUNION_LON REUNION_TYPE REUNION_WIND REUNION_PRES REUNION_TNUM REUNION_CI REUNION_RMW REUNION_R34_NE REUNION_R34_SE REUNION_R34_SW REUNION_R34_NW REUNION_R50_NE REUNION_R50_SE REUNION_R50_SW REUNION_R50_NW REUNION_R64_NE REUNION_R64_SE REUNION_R64_SW REUNION_R64_NW BOM_LAT BOM_LON BOM_TYPE BOM_WIND BOM_PRES BOM_TNUM BOM_CI BOM_RMW BOM_R34_NE BOM_R34_SE BOM_R34_SW BOM_R34_NW BOM_R50_NE BOM_R50_SE BOM_R50_SW BOM_R50_NW BOM_R64_NE BOM_R64_SE BOM_R64_SW BOM_R64_NW BOM_ROCI BOM_POCI BOM_EYE BOM_POS_METHOD BOM_PRES_METHOD NADI_LAT NADI_LON NADI_CAT NADI_WIND NADI_PRES WELLINGTON_LAT WELLINGTON_LON WELLINGTON_WIND WELLINGTON_PRES DS824_LAT DS824_LON DS824_STAGE DS824_WIND DS824_PRES TD9636_LAT TD9636_LON TD9636_STAGE TD9636_WIND TD9636_PRES TD9635_LAT TD9635_LON TD9635_WIND TD9635_PRES TD9635_ROCI NEUMANN_LAT NEUMANN_LON NEUMANN_CLASS NEUMANN_WIND NEUMANN_PRES MLC_LAT MLC_LON MLC_CLASS MLC_WIND MLC_PRES USA_GUST BOM_GUST BOM_GUST_PER REUNION_GUST REUNION_GUST_PER USA_SEAHGT USA_SEARAD_NE USA_SEARAD_SE USA_SEARAD_SW USA_SEARAD_NW STORM_SPEED STORM_DIR
1884231N11128 1884 25 WP MM NOT_NAMED 1884-08-17 16:00:00 NR 10.7000 128.400 main 286 240 __________O___ -1 10.7000 128.400 4 15 312
1884231N11128 1884 25 WP MM NOT_NAMED 1884-08-17 18:00:00 NR 11.0241 128.028 main 240 190 __________P___ -1 11.0241 128.028 4 14 311
1884231N11128 1884 25 WP MM NOT_NAMED 1884-08-17 21:00:00 NR 11.4946 127.484 main 193 162 __________P___ -1 11.4946 127.484 4 14 311
1884231N11128 1884 25 WP MM NOT_NAMED 1884-08-18 00:00:00 NR 11.9257 126.977 main 162 109 __________P___ -1 11.9257 126.977 4 12 311
1884231N11128 1884 25 WP MM NOT_NAMED 1884-08-18 03:00:00 NR 12.2947 126.531 main 109 100 __________P___ -1 12.2947 126.531 4 11 310
1884231N11128 1884 25 WP MM NOT_NAMED 1884-08-18 04:00:00 NR 12.4000 126.400 main 100 83 __________O___ -1 12.4000 126.400 4 9 309
1884231N11128 1884 25 WP MM NOT_NAMED 1884-08-18 06:00:00 NR 12.5817 126.167 main 88 78 __________P___ -1 12.5817 126.167 4 8 308
1884231N11128 1884 25 WP MM NOT_NAMED 1884-08-18 09:00:00 NR 12.7977 125.875 main 79 70 __________P___ -1 12.7977 125.875 4 7 307
1884231N11128 1884 25 WP MM NOT_NAMED 1884-08-18 12:00:00 NR 12.9737 125.625 main 70 64 __________P___ -1 12.9737 125.625 4 6 306
1884231N11128 1884 25 WP MM NOT_NAMED 1884-08-18 15:00:00 NR 13.1409 125.384 main 70 79 __________P___ -1 13.1409 125.384 4 6 306
1884231N11128 1884 25 WP MM NOT_NAMED 1884-08-18 16:00:00 NR 13.2000 125.300 main 79 78 __________O___ -1 13.2000 125.300 4 7 309
1884231N11128 1884 25 WP MM NOT_NAMED 1884-08-18 18:00:00 NR 13.3521 125.111 main 82 44 __________P___ -1 13.3521 125.111 4 7 310
1884231N11128 1884 25 WP MM NOT_NAMED 1884-08-18 21:00:00 NR 13.5867 124.821 main 44 10 __________P___ -1 13.5867 124.821 4 7 309
1884231N11128 1884 25 WP MM NOT_NAMED 1884-08-19 00:00:00 NR 13.8181 124.521 main 10 0 __________P___ -1 13.8181 124.521 4 7 307
1884231N11128 1884 25 WP MM NOT_NAMED 1884-08-19 03:00:00 NR 14.0338 124.208 main 0 0 __________P___ -1 14.0338 124.208 4 7 305
1884231N11128 1884 25 WP MM NOT_NAMED 1884-08-19 04:00:00 NR 14.1000 124.100 main 11 11 __________O___ -1 14.1000 124.100 4 7 298
1884231N11128 1884 25 WP MM NOT_NAMED 1884-08-19 06:00:00 NR 14.2092 123.875 main 31 31 __________P___ -1 14.2092 123.875 4 7 295
1884231N11128 1884 25 WP MM NOT_NAMED 1884-08-19 09:00:00 NR 14.3540 123.526 main 49 44 __________P___ -1 14.3540 123.526 4 7 293
1884231N11128 1884 25 WP MM NOT_NAMED 1884-08-19 12:00:00 NR 14.4926 123.169 main 46 35 __________P___ -1 14.4926 123.169 4 7 293
1884231N11128 1884 25 WP MM NOT_NAMED 1884-08-19 15:00:00 NR 14.6436 122.816 main 44 55 __________P___ -1 14.6436 122.816 4 8 295
1884231N11128 1884 25 WP MM NOT_NAMED 1884-08-19 16:00:00 NR 14.7000 122.700 main 55 55 __________O___ -1 14.7000 122.700 4 7 298
1884231N11128 1884 25 WP MM NOT_NAMED 1884-08-19 18:00:00 NR 14.8089 122.495 main 67 63 __________P___ -1 14.8089 122.495 4 7 301
1884231N11128 1884 25 WP MM NOT_NAMED 1884-08-19 21:00:00 NR 14.9909 122.195 main 63 48 __________P___ -1 14.9909 122.195 4 7 304
1884231N11128 1884 25 WP MM NOT_NAMED 1884-08-20 00:00:00 NR 15.2119 121.882 main 48 0 __________P___ -1 15.2119 121.882 4 8 308
1884231N11128 1884 25 WP MM NOT_NAMED 1884-08-20 03:00:00 NR 15.4909 121.530 main 0 0 __________P___ -1 15.4909 121.530 4 9 310
1884231N11128 1884 25 WP MM NOT_NAMED 1884-08-20 04:00:00 NR 15.6000 121.400 main 0 0 __________O___ -1 15.6000 121.400 4 11 309
1884231N11128 1884 25 WP MM NOT_NAMED 1884-08-20 06:00:00 NR 15.8307 121.089 main 0 0 __________P___ -1 15.8307 121.089 4 12 309
1884231N11128 1884 25 WP MM NOT_NAMED 1884-08-20 09:00:00 NR 16.2329 120.577 main 0 0 __________P___ -1 16.2329 120.577 4 13 311
1884231N11128 1884 25 WP MM NOT_NAMED 1884-08-20 12:00:00 NR 16.6967 120.050 main 33 33 __________P___ -1 16.6967 120.050 4 14 315
1884231N11128 1884 25 WP MM NOT_NAMED 1884-08-20 15:00:00 NR 17.2157 119.552 main 84 91 __________P___ -1 17.2157 119.552 4 14 319
1884231N11128 1884 25 WP MM NOT_NAMED 1884-08-20 16:00:00 NR 17.4000 119.400 main 98 96 __________O___ -1 17.4000 119.400 4 14 324
1884231N11128 1884 25 WP MM NOT_NAMED 1884-08-20 18:00:00 NR 17.7764 119.130 main 129 129 __________P___ -1 17.7764 119.130 4 14 329
1884231N11128 1884 25 WP MM NOT_NAMED 1884-08-20 21:00:00 NR 18.3854 118.769 main 182 182 __________P___ -1 18.3854 118.769 4 14 333
1884231N11128 1884 25 WP MM NOT_NAMED 1884-08-21 00:00:00 NR 19.0283 118.456 main 231 244 __________P___ -1 19.0283 118.456 4 14 337
1884231N11128 1884 25 WP MM NOT_NAMED 1884-08-21 03:00:00 NR 19.6830 118.183 main 291 291 __________P___ -1 19.6830 118.183 4 14 339
1884231N11128 1884 25 WP MM NOT_NAMED 1884-08-21 04:00:00 NR 19.9000 118.100 main 311 311 __________O___ -1 19.9000 118.100 4 13 340
1884231N11128 1884 25 WP MM NOT_NAMED 1884-08-21 06:00:00 NR 20.3033 117.937 main 324 255 __________P___ -1 20.3033 117.937 4 13 341
1884231N11128 1884 25 WP MM NOT_NAMED 1884-08-21 09:00:00 NR 20.9082 117.725 main 255 187 __________P___ -1 20.9082 117.725 4 13 343
1884231N11128 1884 25 WP MM NOT_NAMED 1884-08-21 12:00:00 NR 21.5269 117.538 main 187 121 __________P___ -1 21.5269 117.538 4 13 345
1884231N11128 1884 25 WP MM NOT_NAMED 1884-08-21 15:00:00 NR 22.1748 117.360 main 121 99 __________P___ -1 22.1748 117.360 4 14 346
1884231N11128 1884 25 WP MM NOT_NAMED 1884-08-21 16:00:00 NR 22.4000 117.300 main 99 60 __________O___ -1 22.4000 117.300 4 14 346
1884231N11128 1884 25 WP MM NOT_NAMED 1884-08-21 18:00:00 NR 22.8662 117.176 main 60 10 __________P___ -1 22.8662 117.176 4 15 346
1884231N11128 1884 25 WP MM NOT_NAMED 1884-08-21 21:00:00 NR 23.5990 116.982 main 10 0 __________P___ -1 23.5990 116.982 4 15 346
1884231N11128 1884 25 WP MM NOT_NAMED 1884-08-22 00:00:00 NR 24.3609 116.779 main 0 0 __________P___ -1 24.3609 116.779 4 16 346
1884231N11128 1884 25 WP MM NOT_NAMED 1884-08-22 03:00:00 NR 25.1392 116.571 main 0 0 __________P___ -1 25.1392 116.571 4 16 346
1884231N11128 1884 25 WP MM NOT_NAMED 1884-08-22 04:00:00 NR 25.4000 116.500 main 0 __________O___ -1 25.4000 116.500 4 16 346

デジタル台風データ・検索

IBTrACS Databaseについて

本データベースは、米国NOAAが公開する1842年以降の世界の熱帯低気圧のベストトラックデータアーカイブInternational Best Track Archive for Climate Stewardship (IBTrACS)を、ウェブで閲覧しやすい形式に変換したものです。

最終更新日:2021-12-03